Canyon City, OR

9:15 PM PST on January 20, 2017 (GMT -0800)
Grant County

Weather History for KGCD - July, 2013

Change the Weather History Date:

Saturday, July 27, 2013

  Actual Average (KBNO) Record (KBNO)
Temperature  
Mean Temperature 75 °F -  
Max Temperature 90 °F 87 °F 101 °F (1939)
Min Temperature 61 °F 46 °F 39 °F (1993)
Cooling Degree Days 10    
Growing Degree Days 25 (Base 50)    
Moisture  
Dew Point 23 °F    
Average Humidity 15    
Maximum Humidity 30    
Minimum Humidity 7    
Precipitation  
Precipitation 0.00 in - - ()
Sea Level Pressure  
Sea Level Pressure 30.07 in    
Wind  
Wind Speed 6 mph (West)    
Max Wind Speed 17 mph    
Max Gust Speed 24 mph    
Visibility 10 miles    
Events      
Averages and records for this station are not official NWS values.
T = Trace of Precipitation, MM = Missing Value Source: NWS Daily Summary

Daily Weather History Graph

Daily Weather History Graph

Search for Another Location

Airport or City:

Trip Planner

Search our weather history database for the weather conditions in past years. The results will help you decide how hot, cold, wet, or windy it might be!

Date:

Astronomy

Jul. 27, 2013 Rise Set
Actual Time 5:37 AM PDT 8:26 PM PDT
Civil Twilight 5:03 AM PDT 8:59 PM PDT
Nautical Twilight 4:21 AM PDT 9:42 PM PDT
Astronomical Twilight 3:30 AM PDT 10:32 PM PDT
Moon 10:59 PM PDT (7/27) 11:39 AM PDT (7/27)
Length of Visible Light 15h 56m
Length of Day
14h 48m
Waning Gibbous, 70% of the Moon is Illuminated
Jul 27
Waning Gibbous
Jul 29
Last Quarter
Aug 6
New
Aug 14
First Quarter
Aug 20
Full

Hourly Weather History & Observations

Time (PDT) Temp. Dew Point Humidity Pressure Visibility Wind Dir Wind Speed Gust Speed Precip Events Conditions
12:15 AM 75.4 °F 23.7 °F 15% 30.15 in 10.0 mi West 5.8 mph - N/A   Clear
12:35 AM 73.9 °F 22.6 °F 15% 30.14 in 10.0 mi SW 4.6 mph - N/A   Clear
12:55 AM 73.6 °F 23.0 °F 15% 30.14 in 10.0 mi WSW 8.1 mph - N/A   Clear
1:15 AM 73.0 °F 23.0 °F 15% 30.14 in 10.0 mi WSW 6.9 mph - N/A   Clear
1:35 AM 72.0 °F 23.0 °F 16% 30.14 in 10.0 mi WSW 4.6 mph - N/A   Clear
1:55 AM 70.5 °F 23.5 °F 17% 30.14 in 10.0 mi West 4.6 mph - N/A   Clear
2:15 AM 70.2 °F 23.9 °F 18% 30.15 in 10.0 mi WNW 3.5 mph - N/A   Clear
2:35 AM 70.0 °F 23.9 °F 18% 30.15 in 10.0 mi SW 5.8 mph - N/A   Clear
2:55 AM 68.9 °F 24.4 °F 19% 30.15 in 10.0 mi WSW 5.8 mph - N/A   Clear
3:15 AM 67.6 °F 25.3 °F 20% 30.15 in 10.0 mi WSW 4.6 mph - N/A   Clear
3:35 AM 66.9 °F 25.5 °F 21% 30.15 in 10.0 mi SW 4.6 mph - N/A   Clear
3:55 AM 67.8 °F 25.5 °F 20% 30.14 in 10.0 mi WSW 4.6 mph - N/A   Clear
4:15 AM 65.3 °F 26.4 °F 23% 30.14 in 10.0 mi WSW 4.6 mph - N/A   Clear
4:35 AM 67.3 °F 25.7 °F 21% 30.14 in 10.0 mi SW 4.6 mph - N/A   Clear
4:55 AM 63.7 °F 26.4 °F 24% 30.14 in 10.0 mi Calm Calm - N/A   Clear
5:15 AM 66.2 °F 26.2 °F 22% 30.15 in 10.0 mi Calm Calm - N/A   Clear
5:35 AM 66.0 °F 26.6 °F 23% 30.15 in 10.0 mi Calm Calm - N/A   Clear
5:55 AM 66.2 °F 26.6 °F 23% 30.15 in 10.0 mi Calm Calm - N/A   Clear
6:15 AM 62.6 °F 27.9 °F 27% 30.15 in 10.0 mi Calm Calm - N/A   Clear
6:35 AM 61.3 °F 29.7 °F 30% 30.16 in 10.0 mi ESE 4.6 mph - N/A   Clear
6:55 AM 63.3 °F 30.2 °F 29% 30.15 in 10.0 mi ESE 3.5 mph - N/A   Clear
7:15 AM 65.8 °F 30.0 °F 26% 30.15 in 10.0 mi Calm Calm - N/A   Clear
7:35 AM 67.8 °F 29.3 °F 24% 30.15 in 10.0 mi Calm Calm - N/A   Clear
7:55 AM 68.7 °F 29.1 °F 23% 30.16 in 10.0 mi West 5.8 mph - N/A   Clear
8:15 AM 70.2 °F 28.9 °F 22% 30.16 in 10.0 mi West 6.9 mph - N/A   Clear
8:35 AM 71.1 °F 29.3 °F 21% 30.15 in 10.0 mi West 6.9 mph - N/A   Clear
8:55 AM 71.4 °F 29.5 °F 21% 30.15 in 10.0 mi West 8.1 mph - N/A   Clear
9:15 AM 72.3 °F 28.9 °F 20% 30.15 in 10.0 mi West 6.9 mph - N/A   Clear
9:35 AM 74.1 °F 28.2 °F 18% 30.14 in 10.0 mi WSW 6.9 mph - N/A   Clear
9:55 AM 74.5 °F 28.0 °F 18% 30.13 in 10.0 mi WSW 5.8 mph - N/A   Clear
10:15 AM 76.5 °F 27.9 °F 17% 30.13 in 10.0 mi WSW 3.5 mph - N/A   Clear
10:35 AM 77.4 °F 27.1 °F 16% 30.12 in 10.0 mi WSW 4.6 mph - N/A   Clear
10:55 AM 78.6 °F 27.7 °F 15% 30.12 in 10.0 mi West 5.8 mph - N/A   Clear
11:15 AM 79.2 °F 27.7 °F 15% 30.11 in 10.0 mi NW 4.6 mph - N/A   Clear
11:35 AM 80.6 °F 27.5 °F 14% 30.10 in 10.0 mi West 6.9 mph - N/A   Clear
11:55 AM 80.8 °F 28.2 °F 15% 30.10 in 10.0 mi Calm Calm - N/A   Clear
12:15 PM 82.4 °F 27.5 °F 14% 30.09 in 10.0 mi Calm Calm - N/A   Clear
12:35 PM 84.4 °F 26.1 °F 12% 30.08 in 10.0 mi West 8.1 mph - N/A   Clear
12:55 PM 86.2 °F 22.5 °F 10% 30.07 in 10.0 mi WNW 12.7 mph 18.4 mph N/A   Clear
1:15 PM 85.8 °F 18.1 °F 8% 30.07 in 10.0 mi West 11.5 mph 18.4 mph N/A   Clear
1:35 PM 86.4 °F 21.6 °F 9% 30.06 in 10.0 mi WNW 8.1 mph - N/A   Clear
1:55 PM 87.1 °F 18.3 °F 8% 30.05 in 10.0 mi WNW 9.2 mph - N/A   Clear
2:15 PM 87.8 °F 20.3 °F 8% 30.04 in 10.0 mi West 8.1 mph 18.4 mph N/A   Clear
2:35 PM 88.3 °F 19.2 °F 8% 30.03 in 10.0 mi WSW 15.0 mph - N/A   Clear
2:55 PM 88.9 °F 20.7 °F 8% 30.02 in 10.0 mi West 12.7 mph 21.9 mph N/A   Clear
3:15 PM 88.9 °F 21.4 °F 9% 30.01 in 10.0 mi West 15.0 mph 21.9 mph N/A   Clear
3:35 PM 89.8 °F 22.8 °F 9% 30.00 in 10.0 mi West 13.8 mph 20.7 mph N/A   Clear
3:55 PM 89.6 °F 23.2 °F 9% 30.00 in 10.0 mi West 13.8 mph 23.0 mph N/A   Clear
4:15 PM 89.1 °F 22.6 °F 9% 29.99 in 10.0 mi West 12.7 mph 19.6 mph N/A   Clear
4:35 PM 89.2 °F 20.1 °F 8% 29.98 in 10.0 mi West 17.3 mph 21.9 mph N/A   Clear
4:55 PM 89.6 °F 18.5 °F 7% 29.98 in 10.0 mi West 16.1 mph 24.2 mph N/A   Clear
5:15 PM 88.7 °F 19.4 °F 8% 29.98 in 10.0 mi WNW 12.7 mph 20.7 mph N/A   Clear
5:35 PM 89.2 °F 18.3 °F 7% 29.97 in 10.0 mi WNW 12.7 mph 17.3 mph N/A   Clear
5:55 PM 88.0 °F 16.2 °F 7% 29.97 in 10.0 mi NNW 13.8 mph 20.7 mph N/A   Clear
6:15 PM 87.1 °F 16.0 °F 7% 29.97 in 10.0 mi West 13.8 mph 17.3 mph N/A   Clear
6:35 PM 86.2 °F 15.6 °F 7% 29.96 in 10.0 mi West 9.2 mph 19.6 mph N/A   Clear
6:55 PM 85.3 °F 15.6 °F 7% 29.96 in 10.0 mi NW 12.7 mph 17.3 mph N/A   Clear
7:15 PM 83.5 °F 13.3 °F 7% 29.96 in 10.0 mi NW 16.1 mph - N/A   Clear
7:35 PM 81.9 °F 11.8 °F 7% 29.96 in 10.0 mi NW 12.7 mph - N/A   Clear
7:55 PM 80.2 °F 11.1 °F 7% 29.97 in 10.0 mi NNW 8.1 mph - N/A   Clear
8:15 PM 78.3 °F 11.7 °F 8% 29.97 in 10.0 mi NNW 4.6 mph - N/A   Clear
8:35 PM 77.5 °F 12.0 °F 8% 29.98 in 10.0 mi Calm Calm - N/A   Clear
8:55 PM 75.7 °F 13.8 °F 10% 29.98 in 10.0 mi Calm Calm - N/A   Clear
9:15 PM 75.4 °F 16.2 °F 11% 29.98 in 10.0 mi Calm Calm - N/A   Clear
9:35 PM 74.7 °F 21.4 °F 14% 29.99 in 10.0 mi Calm Calm - N/A   Clear
9:55 PM 73.8 °F 23.0 °F 15% 29.99 in 10.0 mi Calm Calm - N/A   Clear
10:15 PM 71.1 °F 24.6 °F 18% 29.99 in 10.0 mi North 6.9 mph - N/A   Clear
10:35 PM 70.2 °F 25.9 °F 19% 29.99 in 10.0 mi NNW 6.9 mph - N/A   Clear
10:55 PM 68.7 °F 26.6 °F 21% 29.99 in 10.0 mi NW 6.9 mph - N/A   Clear
11:15 PM 68.2 °F 27.9 °F 22% 29.99 in 10.0 mi NW 4.6 mph - N/A   Clear
11:35 PM 66.9 °F 28.0 °F 23% 29.99 in 10.0 mi NW 5.8 mph - N/A   Clear
11:55 PM 65.8 °F 28.4 °F 25% 29.99 in 10.0 mi NW 3.5 mph - N/A   Clear